Pudino, Russia
Current Conditions -  °F | °C
As of 5:30 AM on Sunday 26 Oct 2014 (Local Time) from UNNT Reporting Station
Clear Clear  
Wind Chill: 11°   Ceiling: Unl
Heat Index: 19°   Visibility: 6mi
Dew Point: 14°   Wind: 7mph
Humidity: 80%   Direction: 210°SSW
Pressure: 30"   Gusts: NA
Location:  57.57°N, 79.44°E
Report Text: UNNT 252230Z 21003MPS CAVOK M07/M10 Q1016 25090070 16090070NOSIG RMK QFE752/1003
Loading
Personal Weather Stations






























Interactive Weather Map
Tropical Storm Tracking
New forecast layout! Learn more

10-Day Weather Forecast

Advertisements
Track Severe Weather on mobile